sensor_id;sensor_type;location;lat;lon;timestamp;temperature;humidity
24035;DHT22;12242;50.952;4.678;2023-06-22T00:15:06;21.30;99.90
24035;DHT22;12242;50.952;4.678;2023-06-22T00:17:34;21.20;99.90
24035;DHT22;12242;50.952;4.678;2023-06-22T00:20:04;21.10;99.90
24035;DHT22;12242;50.952;4.678;2023-06-22T00:22:35;21.10;99.90
24035;DHT22;12242;50.952;4.678;2023-06-22T00:25:07;21.10;99.90
24035;DHT22;12242;50.952;4.678;2023-06-22T00:54:24;20.60;99.90
24035;DHT22;12242;50.952;4.678;2023-06-22T00:56:53;20.60;99.90
24035;DHT22;12242;50.952;4.678;2023-06-22T00:59:23;20.80;99.90
24035;DHT22;12242;50.952;4.678;2023-06-22T01:01:53;20.90;99.90
24035;DHT22;12242;50.952;4.678;2023-06-22T01:04:34;20.50;99.90
24035;DHT22;12242;50.952;4.678;2023-06-22T01:10:10;20.60;99.90
24035;DHT22;12242;50.952;4.678;2023-06-22T01:12:45;20.80;99.90
24035;DHT22;12242;50.952;4.678;2023-06-22T01:15:45;21.10;99.90
24035;DHT22;12242;50.952;4.678;2023-06-22T01:18:18;21.10;99.90
24035;DHT22;12242;50.952;4.678;2023-06-22T01:20:47;21.20;99.90
24035;DHT22;12242;50.952;4.678;2023-06-22T01:29:06;21.00;99.90
24035;DHT22;12242;50.952;4.678;2023-06-22T01:31:35;20.90;99.90
24035;DHT22;12242;50.952;4.678;2023-06-22T01:34:07;20.80;99.90
24035;DHT22;12242;50.952;4.678;2023-06-22T01:36:35;20.80;99.90
24035;DHT22;12242;50.952;4.678;2023-06-22T01:39:05;20.70;99.90
24035;DHT22;12242;50.952;4.678;2023-06-22T01:41:39;20.70;99.90
24035;DHT22;12242;50.952;4.678;2023-06-22T01:44:10;20.70;99.90
24035;DHT22;12242;50.952;4.678;2023-06-22T01:46:39;20.60;99.90
24035;DHT22;12242;50.952;4.678;2023-06-22T01:49:08;20.40;99.90
24035;DHT22;12242;50.952;4.678;2023-06-22T01:51:38;20.50;99.90
24035;DHT22;12242;50.952;4.678;2023-06-22T01:54:08;20.30;99.90
24035;DHT22;12242;50.952;4.678;2023-06-22T01:56:35;20.30;99.90
24035;DHT22;12242;50.952;4.678;2023-06-22T01:59:21;20.10;99.90
24035;DHT22;12242;50.952;4.678;2023-06-22T02:02:07;20.00;99.90
24035;DHT22;12242;50.952;4.678;2023-06-22T02:07:15;19.80;99.90
24035;DHT22;12242;50.952;4.678;2023-06-22T02:09:45;19.70;99.90
24035;DHT22;12242;50.952;4.678;2023-06-22T02:12:21;19.70;99.90
24035;DHT22;12242;50.952;4.678;2023-06-22T02:14:53;19.60;99.90
24035;DHT22;12242;50.952;4.678;2023-06-22T02:17:21;19.60;99.90
24035;DHT22;12242;50.952;4.678;2023-06-22T02:19:49;19.50;99.90
24035;DHT22;12242;50.952;4.678;2023-06-22T02:22:17;19.50;99.90
24035;DHT22;12242;50.952;4.678;2023-06-22T02:24:45;19.40;99.90
24035;DHT22;12242;50.952;4.678;2023-06-22T02:27:17;19.30;99.90
24035;DHT22;12242;50.952;4.678;2023-06-22T02:29:45;19.30;99.90
24035;DHT22;12242;50.952;4.678;2023-06-22T02:32:15;19.10;99.90
24035;DHT22;12242;50.952;4.678;2023-06-22T02:34:44;19.00;99.90
24035;DHT22;12242;50.952;4.678;2023-06-22T02:37:15;19.00;99.90
24035;DHT22;12242;50.952;4.678;2023-06-22T02:39:43;19.00;99.90
24035;DHT22;12242;50.952;4.678;2023-06-22T02:42:11;19.20;99.90
24035;DHT22;12242;50.952;4.678;2023-06-22T02:44:39;19.10;99.90
24035;DHT22;12242;50.952;4.678;2023-06-22T02:47:07;19.20;99.90
24035;DHT22;12242;50.952;4.678;2023-06-22T02:49:35;19.20;99.90
24035;DHT22;12242;50.952;4.678;2023-06-22T02:52:04;19.00;99.90
24035;DHT22;12242;50.952;4.678;2023-06-22T02:54:31;19.10;99.90
24035;DHT22;12242;50.952;4.678;2023-06-22T02:57:00;19.10;99.90
24035;DHT22;12242;50.952;4.678;2023-06-22T02:59:30;19.00;99.90
24035;DHT22;12242;50.952;4.678;2023-06-22T03:02:00;19.00;99.90
24035;DHT22;12242;50.952;4.678;2023-06-22T03:04:28;19.00;99.90
24035;DHT22;12242;50.952;4.678;2023-06-22T03:06:56;18.80;99.90
24035;DHT22;12242;50.952;4.678;2023-06-22T03:09:34;18.80;99.90
24035;DHT22;12242;50.952;4.678;2023-06-22T03:12:02;18.70;99.90
24035;DHT22;12242;50.952;4.678;2023-06-22T03:14:30;18.70;99.90
24035;DHT22;12242;50.952;4.678;2023-06-22T03:16:58;18.70;99.90
24035;DHT22;12242;50.952;4.678;2023-06-22T03:19:30;18.60;99.90
24035;DHT22;12242;50.952;4.678;2023-06-22T03:22:00;18.60;99.90
24035;DHT22;12242;50.952;4.678;2023-06-22T03:24:30;18.60;99.90
24035;DHT22;12242;50.952;4.678;2023-06-22T03:26:58;18.60;99.90
24035;DHT22;12242;50.952;4.678;2023-06-22T03:29:25;18.80;99.90
24035;DHT22;12242;50.952;4.678;2023-06-22T03:32:00;18.80;99.90
24035;DHT22;12242;50.952;4.678;2023-06-22T03:34:27;18.80;99.90
24035;DHT22;12242;50.952;4.678;2023-06-22T03:36:57;18.80;99.90
24035;DHT22;12242;50.952;4.678;2023-06-22T03:39:25;18.90;99.90
24035;DHT22;12242;50.952;4.678;2023-06-22T03:41:53;19.10;99.90
24035;DHT22;12242;50.952;4.678;2023-06-22T03:44:21;19.20;99.90
24035;DHT22;12242;50.952;4.678;2023-06-22T03:46:48;19.10;99.90
24035;DHT22;12242;50.952;4.678;2023-06-22T03:49:16;18.80;99.90
24035;DHT22;12242;50.952;4.678;2023-06-22T03:51:44;18.70;99.90
24035;DHT22;12242;50.952;4.678;2023-06-22T03:54:11;18.70;99.90
24035;DHT22;12242;50.952;4.678;2023-06-22T03:56:41;18.90;99.90
24035;DHT22;12242;50.952;4.678;2023-06-22T03:59:09;19.20;99.90
24035;DHT22;12242;50.952;4.678;2023-06-22T04:01:37;19.40;99.90
24035;DHT22;12242;50.952;4.678;2023-06-22T04:04:06;19.50;99.90
24035;DHT22;12242;50.952;4.678;2023-06-22T04:06:36;19.70;99.90
24035;DHT22;12242;50.952;4.678;2023-06-22T04:09:05;19.90;99.90
24035;DHT22;12242;50.952;4.678;2023-06-22T04:11:32;19.90;99.90
24035;DHT22;12242;50.952;4.678;2023-06-22T04:14:00;19.90;99.90
24035;DHT22;12242;50.952;4.678;2023-06-22T04:16:28;20.00;99.90
24035;DHT22;12242;50.952;4.678;2023-06-22T04:18:58;20.10;99.90
24035;DHT22;12242;50.952;4.678;2023-06-22T04:21:28;19.90;99.90
24035;DHT22;12242;50.952;4.678;2023-06-22T04:23:56;19.70;99.90
24035;DHT22;12242;50.952;4.678;2023-06-22T04:26:26;19.30;99.90
24035;DHT22;12242;50.952;4.678;2023-06-22T04:28:56;19.50;99.90
24035;DHT22;12242;50.952;4.678;2023-06-22T04:31:23;19.80;99.90
24035;DHT22;12242;50.952;4.678;2023-06-22T04:33:55;20.10;99.90
24035;DHT22;12242;50.952;4.678;2023-06-22T04:36:23;20.20;99.90
24035;DHT22;12242;50.952;4.678;2023-06-22T04:38:52;20.20;99.90
24035;DHT22;12242;50.952;4.678;2023-06-22T04:41:19;20.10;99.90
24035;DHT22;12242;50.952;4.678;2023-06-22T04:43:53;20.30;99.90
24035;DHT22;12242;50.952;4.678;2023-06-22T04:46:21;20.40;99.90
24035;DHT22;12242;50.952;4.678;2023-06-22T04:48:49;20.40;99.90
24035;DHT22;12242;50.952;4.678;2023-06-22T04:51:19;20.30;99.90
24035;DHT22;12242;50.952;4.678;2023-06-22T04:53:49;20.30;99.90
24035;DHT22;12242;50.952;4.678;2023-06-22T04:56:18;20.20;99.90
24035;DHT22;12242;50.952;4.678;2023-06-22T04:58:48;20.30;99.90
24035;DHT22;12242;50.952;4.678;2023-06-22T05:01:18;20.30;99.90
24035;DHT22;12242;50.952;4.678;2023-06-22T05:03:46;20.20;99.90
24035;DHT22;12242;50.952;4.678;2023-06-22T05:06:14;20.30;99.90
24035;DHT22;12242;50.952;4.678;2023-06-22T05:08:41;20.40;99.90
24035;DHT22;12242;50.952;4.678;2023-06-22T05:11:11;20.60;99.90
24035;DHT22;12242;50.952;4.678;2023-06-22T05:13:38;20.50;99.90
24035;DHT22;12242;50.952;4.678;2023-06-22T05:16:09;20.40;99.90
24035;DHT22;12242;50.952;4.678;2023-06-22T05:18:36;20.50;99.90
24035;DHT22;12242;50.952;4.678;2023-06-22T05:21:04;20.50;99.90
24035;DHT22;12242;50.952;4.678;2023-06-22T05:23:32;20.60;99.90
24035;DHT22;12242;50.952;4.678;2023-06-22T05:26:02;20.70;99.90
24035;DHT22;12242;50.952;4.678;2023-06-22T05:28:29;20.80;99.90
24035;DHT22;12242;50.952;4.678;2023-06-22T05:30:57;20.80;99.90
24035;DHT22;12242;50.952;4.678;2023-06-22T05:33:25;20.80;99.90
24035;DHT22;12242;50.952;4.678;2023-06-22T05:35:52;20.80;99.90
24035;DHT22;12242;50.952;4.678;2023-06-22T05:38:20;20.80;99.90
24035;DHT22;12242;50.952;4.678;2023-06-22T05:40:48;20.80;99.90
24035;DHT22;12242;50.952;4.678;2023-06-22T05:43:15;20.80;99.90
24035;DHT22;12242;50.952;4.678;2023-06-22T05:45:42;20.90;99.90
24035;DHT22;12242;50.952;4.678;2023-06-22T05:48:10;21.00;99.90
24035;DHT22;12242;50.952;4.678;2023-06-22T05:50:37;21.10;99.90
24035;DHT22;12242;50.952;4.678;2023-06-22T05:53:05;21.20;99.90
24035;DHT22;12242;50.952;4.678;2023-06-22T05:55:34;21.20;99.90
24035;DHT22;12242;50.952;4.678;2023-06-22T05:58:02;21.10;99.90
24035;DHT22;12242;50.952;4.678;2023-06-22T06:00:30;21.00;99.90
24035;DHT22;12242;50.952;4.678;2023-06-22T06:02:59;21.00;99.90
24035;DHT22;12242;50.952;4.678;2023-06-22T06:05:31;21.00;99.90
24035;DHT22;12242;50.952;4.678;2023-06-22T06:08:03;21.10;99.90
24035;DHT22;12242;50.952;4.678;2023-06-22T06:10:33;21.10;99.90
24035;DHT22;12242;50.952;4.678;2023-06-22T06:13:01;21.20;99.90
24035;DHT22;12242;50.952;4.678;2023-06-22T06:15:30;21.30;99.90
24035;DHT22;12242;50.952;4.678;2023-06-22T06:17:58;21.40;99.90
24035;DHT22;12242;50.952;4.678;2023-06-22T06:20:26;21.50;99.90
24035;DHT22;12242;50.952;4.678;2023-06-22T06:23:00;21.70;99.90
24035;DHT22;12242;50.952;4.678;2023-06-22T06:25:28;21.70;99.90
24035;DHT22;12242;50.952;4.678;2023-06-22T06:27:56;21.80;99.90
24035;DHT22;12242;50.952;4.678;2023-06-22T06:30:24;21.90;99.90
24035;DHT22;12242;50.952;4.678;2023-06-22T06:32:51;22.10;99.90
24035;DHT22;12242;50.952;4.678;2023-06-22T06:35:19;21.90;99.90
24035;DHT22;12242;50.952;4.678;2023-06-22T06:37:49;21.70;99.90
24035;DHT22;12242;50.952;4.678;2023-06-22T06:40:18;21.60;99.90
24035;DHT22;12242;50.952;4.678;2023-06-22T06:42:47;21.70;99.90
24035;DHT22;12242;50.952;4.678;2023-06-22T06:45:20;21.80;99.90
24035;DHT22;12242;50.952;4.678;2023-06-22T06:47:53;22.10;99.90
24035;DHT22;12242;50.952;4.678;2023-06-22T06:50:24;22.40;99.90
24035;DHT22;12242;50.952;4.678;2023-06-22T06:52:55;22.40;99.90
24035;DHT22;12242;50.952;4.678;2023-06-22T06:55:26;22.50;99.90
24035;DHT22;12242;50.952;4.678;2023-06-22T06:58:01;22.20;99.90
24035;DHT22;12242;50.952;4.678;2023-06-22T07:00:29;22.10;99.90
24035;DHT22;12242;50.952;4.678;2023-06-22T07:02:58;22.10;99.90
24035;DHT22;12242;50.952;4.678;2023-06-22T07:05:25;22.20;99.90
24035;DHT22;12242;50.952;4.678;2023-06-22T07:07:52;21.90;99.90
24035;DHT22;12242;50.952;4.678;2023-06-22T07:10:20;22.10;99.90
24035;DHT22;12242;50.952;4.678;2023-06-22T07:12:48;22.40;99.90
24035;DHT22;12242;50.952;4.678;2023-06-22T07:15:16;22.60;99.90
24035;DHT22;12242;50.952;4.678;2023-06-22T07:17:48;22.30;99.90
24035;DHT22;12242;50.952;4.678;2023-06-22T07:20:16;22.30;99.90
24035;DHT22;12242;50.952;4.678;2023-06-22T07:22:44;22.50;99.90
24035;DHT22;12242;50.952;4.678;2023-06-22T07:25:12;22.50;99.90
24035;DHT22;12242;50.952;4.678;2023-06-22T07:27:56;22.50;99.90
24035;DHT22;12242;50.952;4.678;2023-06-22T07:30:33;22.20;99.90
24035;DHT22;12242;50.952;4.678;2023-06-22T07:33:02;22.10;99.90
24035;DHT22;12242;50.952;4.678;2023-06-22T07:35:32;22.20;99.90
24035;DHT22;12242;50.952;4.678;2023-06-22T07:37:59;22.30;99.90
24035;DHT22;12242;50.952;4.678;2023-06-22T07:40:31;22.20;99.90
24035;DHT22;12242;50.952;4.678;2023-06-22T07:42:59;22.30;99.90
24035;DHT22;12242;50.952;4.678;2023-06-22T07:45:27;22.20;99.90
24035;DHT22;12242;50.952;4.678;2023-06-22T07:47:54;22.30;99.90
24035;DHT22;12242;50.952;4.678;2023-06-22T07:50:21;22.50;99.90
24035;DHT22;12242;50.952;4.678;2023-06-22T07:52:49;22.40;99.90
24035;DHT22;12242;50.952;4.678;2023-06-22T07:55:17;22.20;99.90
24035;DHT22;12242;50.952;4.678;2023-06-22T07:57:48;22.20;99.90
24035;DHT22;12242;50.952;4.678;2023-06-22T08:00:16;22.10;99.90
24035;DHT22;12242;50.952;4.678;2023-06-22T08:02:45;22.00;99.90
24035;DHT22;12242;50.952;4.678;2023-06-22T08:05:15;22.10;99.90
24035;DHT22;12242;50.952;4.678;2023-06-22T08:08:01;22.30;99.90
24035;DHT22;12242;50.952;4.678;2023-06-22T08:10:29;22.20;99.90
24035;DHT22;12242;50.952;4.678;2023-06-22T08:12:57;22.10;99.90
24035;DHT22;12242;50.952;4.678;2023-06-22T08:15:26;22.00;99.90
24035;DHT22;12242;50.952;4.678;2023-06-22T08:17:54;22.00;99.90
24035;DHT22;12242;50.952;4.678;2023-06-22T08:20:22;21.80;99.90
24035;DHT22;12242;50.952;4.678;2023-06-22T08:22:50;21.80;99.90
24035;DHT22;12242;50.952;4.678;2023-06-22T08:25:17;21.90;99.90
24035;DHT22;12242;50.952;4.678;2023-06-22T08:27:46;21.90;99.90
24035;DHT22;12242;50.952;4.678;2023-06-22T08:30:19;21.80;99.90
24035;DHT22;12242;50.952;4.678;2023-06-22T08:32:50;21.60;99.90
24035;DHT22;12242;50.952;4.678;2023-06-22T08:35:17;21.50;99.90
24035;DHT22;12242;50.952;4.678;2023-06-22T08:37:47;21.50;99.90
24035;DHT22;12242;50.952;4.678;2023-06-22T08:40:20;21.70;99.90
24035;DHT22;12242;50.952;4.678;2023-06-22T08:42:50;22.00;99.90
24035;DHT22;12242;50.952;4.678;2023-06-22T08:45:18;21.90;99.90
24035;DHT22;12242;50.952;4.678;2023-06-22T08:47:46;21.80;99.90
24035;DHT22;12242;50.952;4.678;2023-06-22T08:50:15;21.60;99.90
24035;DHT22;12242;50.952;4.678;2023-06-22T08:52:43;21.50;99.90
24035;DHT22;12242;50.952;4.678;2023-06-22T08:55:12;21.60;99.90
24035;DHT22;12242;50.952;4.678;2023-06-22T08:57:41;21.70;99.90
24035;DHT22;12242;50.952;4.678;2023-06-22T09:00:10;21.90;99.90
24035;DHT22;12242;50.952;4.678;2023-06-22T09:02:48;22.10;99.90
24035;DHT22;12242;50.952;4.678;2023-06-22T09:05:16;22.40;99.90
24035;DHT22;12242;50.952;4.678;2023-06-22T09:07:46;22.60;99.90
24035;DHT22;12242;50.952;4.678;2023-06-22T09:10:14;22.30;99.90
24035;DHT22;12242;50.952;4.678;2023-06-22T09:12:44;22.20;99.90
24035;DHT22;12242;50.952;4.678;2023-06-22T09:15:12;22.40;99.90
24035;DHT22;12242;50.952;4.678;2023-06-22T09:17:44;22.30;99.90
24035;DHT22;12242;50.952;4.678;2023-06-22T09:20:14;22.30;99.90
24035;DHT22;12242;50.952;4.678;2023-06-22T09:22:43;22.50;99.90
24035;DHT22;12242;50.952;4.678;2023-06-22T09:25:11;22.70;99.90
24035;DHT22;12242;50.952;4.678;2023-06-22T09:27:39;22.70;99.90
24035;DHT22;12242;50.952;4.678;2023-06-22T09:30:09;22.70;99.90
24035;DHT22;12242;50.952;4.678;2023-06-22T09:32:38;22.90;99.90
24035;DHT22;12242;50.952;4.678;2023-06-22T09:35:06;22.80;99.90
24035;DHT22;12242;50.952;4.678;2023-06-22T09:37:34;22.70;99.90
24035;DHT22;12242;50.952;4.678;2023-06-22T09:40:02;22.40;99.90
24035;DHT22;12242;50.952;4.678;2023-06-22T09:42:35;22.10;99.90
24035;DHT22;12242;50.952;4.678;2023-06-22T09:45:03;21.90;99.90
24035;DHT22;12242;50.952;4.678;2023-06-22T09:47:31;21.90;99.90
24035;DHT22;12242;50.952;4.678;2023-06-22T09:49:58;21.90;99.90
24035;DHT22;12242;50.952;4.678;2023-06-22T09:52:27;21.60;99.90
24035;DHT22;12242;50.952;4.678;2023-06-22T09:55:13;21.10;99.90
24035;DHT22;12242;50.952;4.678;2023-06-22T09:57:43;20.50;99.90
24035;DHT22;12242;50.952;4.678;2023-06-22T10:00:12;19.70;99.90
24035;DHT22;12242;50.952;4.678;2023-06-22T10:02:43;19.60;99.90
24035;DHT22;12242;50.952;4.678;2023-06-22T10:05:11;19.70;99.90
24035;DHT22;12242;50.952;4.678;2023-06-22T10:07:43;20.00;99.90
24035;DHT22;12242;50.952;4.678;2023-06-22T10:10:12;19.90;99.90
24035;DHT22;12242;50.952;4.678;2023-06-22T10:12:47;19.40;99.90
24035;DHT22;12242;50.952;4.678;2023-06-22T10:15:16;19.50;99.90
24035;DHT22;12242;50.952;4.678;2023-06-22T10:17:44;19.60;99.90
24035;DHT22;12242;50.952;4.678;2023-06-22T10:20:12;19.60;99.90
24035;DHT22;12242;50.952;4.678;2023-06-22T10:22:41;19.40;99.90
24035;DHT22;12242;50.952;4.678;2023-06-22T10:25:10;19.40;99.90
24035;DHT22;12242;50.952;4.678;2023-06-22T10:27:38;19.30;99.90
24035;DHT22;12242;50.952;4.678;2023-06-22T10:30:15;19.30;99.90
24035;DHT22;12242;50.952;4.678;2023-06-22T10:32:46;19.30;99.90
24035;DHT22;12242;50.952;4.678;2023-06-22T10:35:15;19.20;99.90
24035;DHT22;12242;50.952;4.678;2023-06-22T10:37:47;19.20;99.90
24035;DHT22;12242;50.952;4.678;2023-06-22T10:40:16;19.30;99.90
24035;DHT22;12242;50.952;4.678;2023-06-22T10:42:47;19.30;99.90
24035;DHT22;12242;50.952;4.678;2023-06-22T10:45:18;19.30;99.90
24035;DHT22;12242;50.952;4.678;2023-06-22T10:47:47;19.10;99.90
24035;DHT22;12242;50.952;4.678;2023-06-22T10:50:17;19.20;99.90
24035;DHT22;12242;50.952;4.678;2023-06-22T10:52:50;19.20;99.90
24035;DHT22;12242;50.952;4.678;2023-06-22T10:55:20;19.20;99.90
24035;DHT22;12242;50.952;4.678;2023-06-22T10:57:48;19.20;99.90
24035;DHT22;12242;50.952;4.678;2023-06-22T11:00:19;19.20;99.90
24035;DHT22;12242;50.952;4.678;2023-06-22T11:02:48;19.00;99.90
24035;DHT22;12242;50.952;4.678;2023-06-22T11:05:16;19.10;99.90
24035;DHT22;12242;50.952;4.678;2023-06-22T11:07:44;19.20;99.90
24035;DHT22;12242;50.952;4.678;2023-06-22T11:10:13;19.10;99.90
24035;DHT22;12242;50.952;4.678;2023-06-22T11:12:44;19.00;99.90
24035;DHT22;12242;50.952;4.678;2023-06-22T11:15:12;19.00;99.90
24035;DHT22;12242;50.952;4.678;2023-06-22T11:17:45;18.90;99.90
24035;DHT22;12242;50.952;4.678;2023-06-22T11:20:13;18.90;99.90
24035;DHT22;12242;50.952;4.678;2023-06-22T11:22:41;18.90;99.90
24035;DHT22;12242;50.952;4.678;2023-06-22T11:25:10;18.90;99.90
24035;DHT22;12242;50.952;4.678;2023-06-22T11:27:42;19.00;99.90
24035;DHT22;12242;50.952;4.678;2023-06-22T11:30:11;19.30;99.90
24035;DHT22;12242;50.952;4.678;2023-06-22T11:32:39;19.40;99.90
24035;DHT22;12242;50.952;4.678;2023-06-22T11:35:09;19.60;99.90
24035;DHT22;12242;50.952;4.678;2023-06-22T11:37:37;19.70;99.90
24035;DHT22;12242;50.952;4.678;2023-06-22T11:40:05;19.90;99.90
24035;DHT22;12242;50.952;4.678;2023-06-22T11:42:36;20.00;99.90
24035;DHT22;12242;50.952;4.678;2023-06-22T11:45:05;19.90;99.90
24035;DHT22;12242;50.952;4.678;2023-06-22T11:47:35;19.90;99.90
24035;DHT22;12242;50.952;4.678;2023-06-22T11:50:07;19.80;99.90
24035;DHT22;12242;50.952;4.678;2023-06-22T11:52:35;19.70;99.90
24035;DHT22;12242;50.952;4.678;2023-06-22T11:55:06;19.70;99.90
24035;DHT22;12242;50.952;4.678;2023-06-22T11:57:54;19.70;99.90
24035;DHT22;12242;50.952;4.678;2023-06-22T12:00:22;19.60;99.90
24035;DHT22;12242;50.952;4.678;2023-06-22T12:02:56;19.30;99.90
24035;DHT22;12242;50.952;4.678;2023-06-22T12:05:27;19.30;99.90
24035;DHT22;12242;50.952;4.678;2023-06-22T12:07:55;19.40;99.90
24035;DHT22;12242;50.952;4.678;2023-06-22T12:10:23;19.40;99.90
24035;DHT22;12242;50.952;4.678;2023-06-22T12:12:52;19.60;99.90
24035;DHT22;12242;50.952;4.678;2023-06-22T12:15:20;19.60;99.90
24035;DHT22;12242;50.952;4.678;2023-06-22T12:17:48;19.60;99.90
24035;DHT22;12242;50.952;4.678;2023-06-22T12:20:15;19.50;99.90
24035;DHT22;12242;50.952;4.678;2023-06-22T12:22:43;19.60;99.90
24035;DHT22;12242;50.952;4.678;2023-06-22T12:25:11;19.50;99.90
24035;DHT22;12242;50.952;4.678;2023-06-22T12:27:39;19.40;99.90
24035;DHT22;12242;50.952;4.678;2023-06-22T12:30:08;19.30;99.90
24035;DHT22;12242;50.952;4.678;2023-06-22T12:32:39;19.30;99.90
24035;DHT22;12242;50.952;4.678;2023-06-22T12:35:10;19.10;99.90
24035;DHT22;12242;50.952;4.678;2023-06-22T12:37:42;19.10;99.90
24035;DHT22;12242;50.952;4.678;2023-06-22T12:40:11;19.00;99.90
24035;DHT22;12242;50.952;4.678;2023-06-22T12:42:41;18.90;99.90
24035;DHT22;12242;50.952;4.678;2023-06-22T12:45:10;18.80;99.90
24035;DHT22;12242;50.952;4.678;2023-06-22T12:47:39;18.80;99.90
24035;DHT22;12242;50.952;4.678;2023-06-22T12:50:07;18.90;99.90
24035;DHT22;12242;50.952;4.678;2023-06-22T12:52:37;18.90;99.90
24035;DHT22;12242;50.952;4.678;2023-06-22T12:55:08;19.00;99.90
24035;DHT22;12242;50.952;4.678;2023-06-22T12:57:36;19.00;99.90
24035;DHT22;12242;50.952;4.678;2023-06-22T13:00:04;19.10;99.90
24035;DHT22;12242;50.952;4.678;2023-06-22T13:02:32;19.20;99.90
24035;DHT22;12242;50.952;4.678;2023-06-22T13:05:03;19.20;99.90
24035;DHT22;12242;50.952;4.678;2023-06-22T13:07:33;19.10;99.90
24035;DHT22;12242;50.952;4.678;2023-06-22T13:10:05;19.20;99.90
24035;DHT22;12242;50.952;4.678;2023-06-22T13:12:33;19.30;99.90
24035;DHT22;12242;50.952;4.678;2023-06-22T13:15:02;19.30;99.90
24035;DHT22;12242;50.952;4.678;2023-06-22T13:17:33;19.30;99.90
24035;DHT22;12242;50.952;4.678;2023-06-22T13:20:00;19.30;99.90
24035;DHT22;12242;50.952;4.678;2023-06-22T13:22:33;19.30;99.90
24035;DHT22;12242;50.952;4.678;2023-06-22T13:25:01;19.30;99.90
24035;DHT22;12242;50.952;4.678;2023-06-22T13:27:29;19.30;99.90
24035;DHT22;12242;50.952;4.678;2023-06-22T13:29:57;19.30;99.90
24035;DHT22;12242;50.952;4.678;2023-06-22T13:32:25;19.30;99.90
24035;DHT22;12242;50.952;4.678;2023-06-22T13:34:53;19.30;99.90
24035;DHT22;12242;50.952;4.678;2023-06-22T13:37:21;19.30;99.90
24035;DHT22;12242;50.952;4.678;2023-06-22T13:39:50;19.30;99.90
24035;DHT22;12242;50.952;4.678;2023-06-22T13:42:20;19.30;99.90
24035;DHT22;12242;50.952;4.678;2023-06-22T13:44:47;19.30;99.90
24035;DHT22;12242;50.952;4.678;2023-06-22T13:47:15;19.30;99.90
24035;DHT22;12242;50.952;4.678;2023-06-22T13:49:45;19.30;99.90
24035;DHT22;12242;50.952;4.678;2023-06-22T13:52:13;19.30;99.90
24035;DHT22;12242;50.952;4.678;2023-06-22T13:54:40;19.40;99.90
24035;DHT22;12242;50.952;4.678;2023-06-22T13:57:08;19.40;99.90
24035;DHT22;12242;50.952;4.678;2023-06-22T13:59:36;19.40;99.90
24035;DHT22;12242;50.952;4.678;2023-06-22T14:02:03;19.40;99.90
24035;DHT22;12242;50.952;4.678;2023-06-22T14:04:31;19.50;99.90
24035;DHT22;12242;50.952;4.678;2023-06-22T14:07:00;19.50;99.90
24035;DHT22;12242;50.952;4.678;2023-06-22T14:09:29;19.50;99.90
24035;DHT22;12242;50.952;4.678;2023-06-22T14:11:56;19.50;99.90
24035;DHT22;12242;50.952;4.678;2023-06-22T14:14:32;19.40;99.90
24035;DHT22;12242;50.952;4.678;2023-06-22T14:17:01;19.40;99.90
24035;DHT22;12242;50.952;4.678;2023-06-22T14:19:29;19.40;99.90
24035;DHT22;12242;50.952;4.678;2023-06-22T14:21:56;19.40;99.90
24035;DHT22;12242;50.952;4.678;2023-06-22T14:24:24;19.30;99.90
24035;DHT22;12242;50.952;4.678;2023-06-22T14:26:55;19.30;99.90
24035;DHT22;12242;50.952;4.678;2023-06-22T14:29:28;19.30;99.90
24035;DHT22;12242;50.952;4.678;2023-06-22T14:31:55;19.40;99.90
24035;DHT22;12242;50.952;4.678;2023-06-22T14:34:23;19.40;99.90
24035;DHT22;12242;50.952;4.678;2023-06-22T14:36:50;19.40;99.90
24035;DHT22;12242;50.952;4.678;2023-06-22T14:39:18;19.40;99.90
24035;DHT22;12242;50.952;4.678;2023-06-22T14:41:48;19.40;99.90
24035;DHT22;12242;50.952;4.678;2023-06-22T14:44:16;19.40;99.90
24035;DHT22;12242;50.952;4.678;2023-06-22T14:46:43;19.40;99.90
24035;DHT22;12242;50.952;4.678;2023-06-22T14:49:10;19.40;99.90
24035;DHT22;12242;50.952;4.678;2023-06-22T14:51:38;19.40;99.90
24035;DHT22;12242;50.952;4.678;2023-06-22T14:54:05;19.40;99.90
24035;DHT22;12242;50.952;4.678;2023-06-22T14:56:33;19.50;99.90
24035;DHT22;12242;50.952;4.678;2023-06-22T14:59:01;19.40;99.90
24035;DHT22;12242;50.952;4.678;2023-06-22T15:01:28;19.40;99.90
24035;DHT22;12242;50.952;4.678;2023-06-22T15:03:56;19.50;99.90
24035;DHT22;12242;50.952;4.678;2023-06-22T15:06:24;19.50;99.90
24035;DHT22;12242;50.952;4.678;2023-06-22T15:08:51;19.50;99.90
24035;DHT22;12242;50.952;4.678;2023-06-22T15:11:20;19.50;99.90
24035;DHT22;12242;50.952;4.678;2023-06-22T15:13:50;19.40;99.90
24035;DHT22;12242;50.952;4.678;2023-06-22T15:16:18;19.50;99.90
24035;DHT22;12242;50.952;4.678;2023-06-22T15:18:49;19.50;99.90
24035;DHT22;12242;50.952;4.678;2023-06-22T15:21:16;19.50;99.90
24035;DHT22;12242;50.952;4.678;2023-06-22T15:23:44;19.60;99.90
24035;DHT22;12242;50.952;4.678;2023-06-22T15:26:14;19.60;99.90
24035;DHT22;12242;50.952;4.678;2023-06-22T15:28:41;19.70;99.90
24035;DHT22;12242;50.952;4.678;2023-06-22T15:31:09;19.80;99.90
24035;DHT22;12242;50.952;4.678;2023-06-22T15:33:36;19.90;99.90
24035;DHT22;12242;50.952;4.678;2023-06-22T15:36:04;20.00;99.90
24035;DHT22;12242;50.952;4.678;2023-06-22T15:38:36;20.00;99.90
24035;DHT22;12242;50.952;4.678;2023-06-22T15:41:04;20.10;99.90
24035;DHT22;12242;50.952;4.678;2023-06-22T15:43:32;20.30;99.90
24035;DHT22;12242;50.952;4.678;2023-06-22T15:46:00;20.40;99.90
24035;DHT22;12242;50.952;4.678;2023-06-22T15:48:27;20.40;99.90
24035;DHT22;12242;50.952;4.678;2023-06-22T15:50:55;20.40;99.90
24035;DHT22;12242;50.952;4.678;2023-06-22T15:53:23;20.30;99.90
24035;DHT22;12242;50.952;4.678;2023-06-22T15:55:51;20.20;99.90
24035;DHT22;12242;50.952;4.678;2023-06-22T15:58:21;20.20;99.90
24035;DHT22;12242;50.952;4.678;2023-06-22T16:00:49;20.20;99.90
24035;DHT22;12242;50.952;4.678;2023-06-22T16:03:19;20.20;99.90
24035;DHT22;12242;50.952;4.678;2023-06-22T16:05:47;20.30;99.90
24035;DHT22;12242;50.952;4.678;2023-06-22T16:08:17;20.30;99.90
24035;DHT22;12242;50.952;4.678;2023-06-22T16:10:48;20.40;99.90
24035;DHT22;12242;50.952;4.678;2023-06-22T16:13:16;20.40;99.90
24035;DHT22;12242;50.952;4.678;2023-06-22T16:15:44;20.40;99.90
24035;DHT22;12242;50.952;4.678;2023-06-22T16:18:13;20.30;99.90
24035;DHT22;12242;50.952;4.678;2023-06-22T16:20:43;20.20;99.90
24035;DHT22;12242;50.952;4.678;2023-06-22T16:23:13;20.20;99.90
24035;DHT22;12242;50.952;4.678;2023-06-22T16:25:43;20.10;99.90
24035;DHT22;12242;50.952;4.678;2023-06-22T16:28:13;20.20;99.90
24035;DHT22;12242;50.952;4.678;2023-06-22T16:30:41;20.20;99.90
24035;DHT22;12242;50.952;4.678;2023-06-22T16:33:09;20.20;99.90
24035;DHT22;12242;50.952;4.678;2023-06-22T16:35:39;20.10;99.90